createdAt,value
2018-11-02T00:00:37.483Z,97.55
2018-11-02T00:03:07.058Z,98.09
2018-11-02T00:05:36.132Z,97.97
2018-11-02T00:08:06.663Z,98.30
2018-11-02T00:10:35.784Z,98.83
2018-11-02T00:13:04.880Z,99.09
2018-11-02T00:15:33.885Z,99.04
2018-11-02T00:18:03.042Z,99.30
2018-11-02T00:20:32.716Z,99.45
2018-11-02T00:23:01.691Z,99.67
2018-11-02T00:25:30.980Z,99.24
2018-11-02T00:28:00.757Z,99.64
2018-11-02T00:30:30.461Z,99.38
2018-11-02T00:33:00.000Z,99.40
2018-11-02T00:35:29.564Z,99.79
2018-11-02T00:37:59.656Z,99.46
2018-11-02T00:40:28.719Z,99.31
2018-11-02T00:42:58.532Z,99.41
2018-11-02T00:45:27.643Z,99.66
2018-11-02T00:47:56.546Z,99.70
2018-11-02T00:50:25.704Z,99.83
2018-11-02T00:52:54.313Z,99.72
2018-11-02T00:55:23.272Z,99.72
2018-11-02T00:57:52.386Z,99.78
2018-11-02T01:00:21.782Z,99.92
2018-11-02T01:02:51.452Z,99.94
2018-11-02T01:05:20.229Z,99.25
2018-11-02T01:07:49.901Z,99.14
2018-11-02T01:10:19.037Z,99.24
2018-11-02T01:12:48.071Z,99.18
2018-11-02T01:15:17.676Z,99.13
2018-11-02T01:17:46.493Z,99.08
2018-11-02T01:20:15.933Z,99.08
2018-11-02T01:22:44.898Z,99.12
2018-11-02T01:25:13.483Z,99.06
2018-11-02T01:27:43.051Z,99.25
2018-11-02T01:30:12.717Z,99.26
2018-11-02T01:32:42.127Z,99.29
2018-11-02T01:35:11.087Z,99.01
2018-11-02T01:37:40.624Z,98.71
2018-11-02T01:40:09.845Z,98.54
2018-11-02T01:42:38.574Z,98.09
2018-11-02T01:45:08.084Z,97.74
2018-11-02T01:47:36.978Z,97.83
2018-11-02T01:50:06.625Z,97.11
2018-11-02T01:52:36.331Z,97.29
2018-11-02T01:55:06.584Z,97.10
2018-11-02T01:57:35.764Z,96.58
2018-11-02T02:00:05.061Z,96.60
2018-11-02T02:02:34.113Z,96.57
2018-11-02T02:05:03.556Z,96.66
2018-11-02T02:07:33.297Z,96.58
2018-11-02T02:10:02.616Z,96.74
2018-11-02T02:12:31.655Z,97.04
2018-11-02T02:15:00.490Z,97.21
2018-11-02T02:17:30.109Z,97.26
2018-11-02T02:19:58.744Z,97.15
2018-11-02T02:22:27.317Z,97.10
2018-11-02T02:24:56.296Z,96.96
2018-11-02T02:27:25.393Z,97.19
2018-11-02T02:29:54.642Z,97.36
2018-11-02T02:32:24.024Z,97.32
2018-11-02T02:34:53.161Z,97.42
2018-11-02T02:37:21.761Z,96.78
2018-11-02T02:39:52.192Z,96.63
2018-11-02T02:42:21.832Z,96.67
2018-11-02T02:44:51.178Z,96.85
2018-11-02T02:47:20.365Z,96.88
2018-11-02T02:49:49.761Z,96.24
2018-11-02T02:52:18.394Z,95.90
2018-11-02T02:54:48.364Z,95.77
2018-11-02T02:57:17.976Z,95.74
2018-11-02T02:59:47.442Z,96.83
2018-11-02T03:02:16.286Z,96.84
2018-11-02T03:04:45.864Z,96.24
2018-11-02T03:07:15.138Z,96.14
2018-11-02T03:09:44.518Z,95.38
2018-11-02T03:12:14.155Z,95.58
2018-11-02T03:14:43.406Z,95.30
2018-11-02T03:17:12.628Z,95.23
2018-11-02T03:19:42.293Z,95.22
2018-11-02T03:22:10.894Z,95.49
2018-11-02T03:24:39.862Z,95.60
2018-11-02T03:27:09.023Z,96.49
2018-11-02T03:29:37.625Z,97.03
2018-11-02T03:32:06.226Z,98.01
2018-11-02T03:34:35.711Z,97.99
2018-11-02T03:37:04.765Z,97.97
2018-11-02T03:39:33.847Z,98.49
2018-11-02T03:42:02.802Z,98.61
2018-11-02T03:44:32.649Z,99.20
2018-11-02T03:47:01.874Z,99.20
2018-11-02T03:49:31.471Z,99.11
2018-11-02T03:52:01.711Z,99.14
2018-11-02T03:54:30.861Z,99.26
2018-11-02T03:57:00.024Z,99.44
2018-11-02T03:59:29.306Z,99.45
2018-11-02T04:01:58.105Z,99.41
2018-11-02T04:04:29.395Z,99.98
2018-11-02T04:06:59.370Z,100.00
2018-11-02T04:09:29.297Z,100.00
2018-11-02T04:11:58.131Z,100.00
2018-11-02T04:14:28.010Z,100.00
2018-11-02T04:16:57.460Z,100.00
2018-11-02T04:19:26.731Z,100.00
2018-11-02T04:21:56.067Z,100.00
2018-11-02T04:24:25.417Z,100.00
2018-11-02T04:26:54.912Z,100.00
2018-11-02T04:29:24.575Z,100.00
2018-11-02T04:31:53.627Z,100.00
2018-11-02T04:34:23.164Z,100.00
2018-11-02T04:36:52.106Z,100.00
2018-11-02T04:39:22.463Z,100.00
2018-11-02T04:41:51.594Z,100.00
2018-11-02T04:44:21.182Z,100.00
2018-11-02T04:46:50.165Z,100.00
2018-11-02T04:49:19.205Z,100.00
2018-11-02T04:51:48.572Z,100.00
2018-11-02T04:54:18.263Z,100.00
2018-11-02T04:56:48.083Z,100.00
2018-11-02T04:59:17.942Z,100.00
2018-11-02T05:01:46.856Z,100.00
2018-11-02T05:04:16.264Z,100.00
2018-11-02T05:06:45.552Z,100.00
2018-11-02T05:09:14.505Z,100.00
2018-11-02T05:11:43.421Z,100.00
2018-11-02T05:14:12.081Z,100.00
2018-11-02T05:16:41.716Z,100.00
2018-11-02T05:19:10.309Z,100.00
2018-11-02T05:21:39.620Z,100.00
2018-11-02T05:24:08.667Z,100.00
2018-11-02T05:26:37.608Z,100.00
2018-11-02T05:29:06.386Z,100.00
2018-11-02T05:31:35.562Z,100.00
2018-11-02T05:34:05.284Z,100.00
2018-11-02T05:36:34.905Z,100.00
2018-11-02T05:39:04.689Z,100.00
2018-11-02T05:41:33.228Z,100.00
2018-11-02T05:44:02.496Z,100.00
2018-11-02T05:46:32.116Z,100.00
2018-11-02T05:49:01.213Z,100.00
2018-11-02T05:51:31.751Z,100.00
2018-11-02T05:54:00.657Z,100.00
2018-11-02T05:56:29.399Z,100.00
2018-11-02T05:58:58.313Z,100.00
2018-11-02T06:01:27.191Z,100.00
2018-11-02T06:03:56.608Z,100.00
2018-11-02T06:06:26.763Z,100.00
2018-11-02T06:08:56.299Z,100.00
2018-11-02T06:11:25.907Z,100.00
2018-11-02T06:13:54.894Z,100.00
2018-11-02T06:16:24.009Z,100.00
2018-11-02T06:18:53.355Z,100.00
2018-11-02T06:21:22.337Z,100.00
2018-11-02T06:23:51.793Z,100.00
2018-11-02T06:26:20.931Z,100.00
2018-11-02T06:28:50.287Z,100.00
2018-11-02T06:31:19.538Z,100.00
2018-11-02T06:33:49.127Z,100.00
2018-11-02T06:36:17.990Z,100.00
2018-11-02T06:38:47.599Z,100.00
2018-11-02T06:41:16.475Z,100.00
2018-11-02T06:43:45.500Z,100.00
2018-11-02T06:46:15.018Z,100.00
2018-11-02T06:48:45.536Z,100.00
2018-11-02T06:51:14.830Z,100.00
2018-11-02T06:53:44.365Z,100.00
2018-11-02T06:56:13.480Z,100.00
2018-11-02T06:58:43.323Z,100.00
2018-11-02T07:01:12.953Z,100.00
2018-11-02T07:03:41.585Z,100.00
2018-11-02T07:06:10.638Z,100.00
2018-11-02T07:08:40.000Z,100.00
2018-11-02T07:11:09.950Z,100.00
2018-11-02T07:13:39.452Z,100.00
2018-11-02T07:16:09.404Z,100.00
2018-11-02T07:18:38.193Z,100.00
2018-11-02T07:21:07.689Z,100.00
2018-11-02T07:23:36.337Z,100.00
2018-11-02T07:26:05.197Z,100.00
2018-11-02T07:28:34.549Z,100.00
2018-11-02T07:31:04.243Z,100.00
2018-11-02T07:33:33.906Z,100.00
2018-11-02T07:36:02.845Z,100.00
2018-11-02T07:38:32.531Z,100.00
2018-11-02T07:41:02.137Z,100.00
2018-11-02T07:43:31.570Z,100.00
2018-11-02T07:46:00.992Z,100.00
2018-11-02T07:48:29.815Z,100.00
2018-11-02T07:51:00.352Z,100.00
2018-11-02T07:53:34.311Z,100.00
2018-11-02T07:56:08.105Z,100.00
2018-11-02T07:58:40.213Z,100.00
2018-11-02T08:01:11.961Z,100.00
2018-11-02T08:03:45.118Z,100.00
2018-11-02T08:06:21.548Z,100.00
2018-11-02T08:08:53.039Z,100.00
2018-11-02T08:11:36.236Z,100.00
2018-11-02T08:16:49.355Z,100.00
2018-11-02T08:19:18.949Z,100.00
2018-11-02T08:21:49.015Z,100.00
2018-11-02T08:24:21.696Z,100.00
2018-11-02T08:26:55.161Z,100.00
2018-11-02T08:29:25.084Z,100.00
2018-11-02T08:32:31.866Z,100.00
2018-11-02T08:35:10.976Z,100.00
2018-11-02T08:41:03.193Z,100.00
2018-11-02T08:43:46.612Z,99.96
2018-11-02T08:46:21.497Z,99.62
2018-11-02T08:48:58.604Z,98.42
2018-11-02T08:51:32.365Z,97.24
2018-11-02T08:54:07.605Z,96.04
2018-11-02T08:56:38.234Z,94.48
2018-11-02T08:59:18.319Z,93.61
2018-11-02T09:01:52.407Z,94.33
2018-11-02T09:04:24.753Z,94.43
2018-11-02T09:06:56.936Z,94.10
2018-11-02T09:09:29.768Z,94.83
2018-11-02T09:12:04.265Z,95.68
2018-11-02T09:14:39.513Z,95.07
2018-11-02T09:17:08.712Z,94.35
2018-11-02T09:19:37.796Z,94.55
2018-11-02T09:22:08.586Z,94.03
2018-11-02T09:24:41.314Z,93.35
2018-11-02T09:27:16.317Z,92.45
2018-11-02T09:29:47.510Z,91.88
2018-11-02T09:32:17.817Z,91.71
2018-11-02T09:34:55.541Z,91.36
2018-11-02T09:37:24.566Z,90.69
2018-11-02T09:40:01.866Z,90.86
2018-11-02T09:42:32.641Z,90.19
2018-11-02T09:45:05.277Z,90.28
2018-11-02T09:47:35.838Z,88.82
2018-11-02T09:50:05.317Z,86.53
2018-11-02T09:52:41.843Z,85.92
2018-11-02T09:55:15.856Z,85.73
2018-11-02T09:57:53.543Z,85.73
2018-11-02T10:00:23.487Z,84.98
2018-11-02T10:02:52.967Z,83.83
2018-11-02T10:05:21.980Z,83.28
2018-11-02T10:07:51.379Z,83.27
2018-11-02T10:10:20.743Z,83.12
2018-11-02T10:12:49.686Z,83.37
2018-11-02T10:15:20.917Z,82.87
2018-11-02T10:17:57.540Z,82.96
2018-11-02T10:20:27.051Z,78.81
2018-11-02T10:22:58.309Z,78.12
2018-11-02T10:25:28.742Z,80.66
2018-11-02T10:28:28.514Z,81.16
2018-11-02T10:31:33.944Z,78.30
2018-11-02T10:34:14.707Z,77.84
2018-11-02T10:36:56.748Z,77.58
2018-11-02T10:39:41.455Z,78.35
2018-11-02T10:42:20.548Z,79.85
2018-11-02T10:45:02.877Z,79.96
2018-11-02T10:47:33.424Z,80.16
2018-11-02T10:50:02.707Z,80.19
2018-11-02T10:52:32.209Z,80.29
2018-11-02T10:55:01.388Z,80.10
2018-11-02T10:57:31.417Z,80.17
2018-11-02T11:00:01.938Z,80.09
2018-11-02T11:02:36.134Z,79.38
2018-11-02T11:05:06.338Z,78.27
2018-11-02T11:07:35.817Z,79.44
2018-11-02T11:10:07.630Z,78.92
2018-11-02T11:12:36.734Z,78.63
2018-11-02T11:15:05.905Z,77.53
2018-11-02T11:17:35.186Z,77.86
2018-11-02T11:20:04.073Z,77.94
2018-11-02T11:22:33.507Z,77.82
2018-11-02T11:25:03.181Z,77.12
2018-11-02T11:27:31.835Z,75.26
2018-11-02T11:30:01.157Z,74.20
2018-11-02T11:32:30.127Z,72.83
2018-11-02T11:34:59.715Z,71.25
2018-11-02T11:37:28.485Z,70.81
2018-11-02T11:39:57.529Z,70.78
2018-11-02T11:42:26.594Z,69.99
2018-11-02T11:44:55.194Z,70.02
2018-11-02T11:47:24.096Z,70.69
2018-11-02T11:49:53.138Z,69.81
2018-11-02T11:52:22.616Z,68.30
2018-11-02T11:54:52.956Z,70.71
2018-11-02T11:57:22.066Z,71.61
2018-11-02T11:59:51.625Z,72.50
2018-11-02T12:02:20.689Z,73.33
2018-11-02T12:04:49.951Z,73.08
2018-11-02T12:07:20.086Z,72.78
2018-11-02T12:09:48.988Z,72.49
2018-11-02T12:12:19.067Z,72.03
2018-11-02T12:14:48.838Z,72.18
2018-11-02T12:17:18.249Z,72.62
2018-11-02T12:19:47.768Z,73.38
2018-11-02T12:22:16.998Z,72.86
2018-11-02T12:24:46.457Z,73.21
2018-11-02T12:27:15.399Z,73.27
2018-11-02T12:29:44.409Z,73.73
2018-11-02T12:32:13.517Z,72.97
2018-11-02T12:34:42.749Z,72.94
2018-11-02T12:37:11.993Z,73.27
2018-11-02T12:39:41.113Z,73.57
2018-11-02T12:42:10.206Z,73.24
2018-11-02T12:44:39.632Z,73.13
2018-11-02T12:47:08.824Z,73.25
2018-11-02T12:49:37.823Z,73.99
2018-11-02T12:52:06.624Z,73.66
2018-11-02T12:54:36.506Z,74.34
2018-11-02T12:57:05.741Z,74.72
2018-11-02T12:59:34.897Z,74.25
2018-11-02T13:02:03.501Z,74.45
2018-11-02T13:04:33.342Z,74.51
2018-11-02T13:07:02.708Z,74.36
2018-11-02T13:09:31.731Z,73.95
2018-11-02T13:12:00.653Z,73.11
2018-11-02T13:14:29.649Z,73.74
2018-11-02T13:16:58.593Z,73.82
2018-11-02T13:19:27.582Z,73.98
2018-11-02T13:21:56.629Z,73.87
2018-11-02T13:24:25.570Z,73.86
2018-11-02T13:26:54.706Z,73.66
2018-11-02T13:29:23.407Z,73.60
2018-11-02T13:31:52.636Z,73.51
2018-11-02T13:34:21.773Z,73.91
2018-11-02T13:36:50.919Z,73.31
2018-11-02T13:39:20.075Z,72.82
2018-11-02T13:41:48.877Z,72.39
2018-11-02T13:44:18.541Z,71.78
2018-11-02T13:46:47.325Z,71.36
2018-11-02T13:49:16.176Z,70.81
2018-11-02T13:51:44.988Z,69.51
2018-11-02T13:54:14.573Z,69.50
2018-11-02T13:56:43.375Z,69.92
2018-11-02T13:59:12.404Z,69.47
2018-11-02T14:01:41.959Z,68.71
2018-11-02T14:04:10.971Z,68.91
2018-11-02T14:06:39.848Z,68.83
2018-11-02T14:09:09.652Z,68.77
2018-11-02T14:11:38.983Z,67.72
2018-11-02T14:14:08.523Z,67.65
2018-11-02T14:16:38.480Z,68.40
2018-11-02T14:19:07.972Z,67.89
2018-11-02T14:21:36.925Z,67.92
2018-11-02T14:24:06.593Z,67.81
2018-11-02T14:26:35.836Z,68.21
2018-11-02T14:29:05.813Z,68.62
2018-11-02T14:31:35.023Z,68.96
2018-11-02T14:34:04.365Z,69.20
2018-11-02T14:36:33.152Z,68.64
2018-11-02T14:39:02.448Z,68.63
2018-11-02T14:41:31.728Z,68.72
2018-11-02T14:44:00.487Z,69.45
2018-11-02T14:46:30.392Z,69.22
2018-11-02T14:48:59.381Z,69.92
2018-11-02T14:51:28.484Z,70.17
2018-11-02T14:53:57.299Z,71.02
2018-11-02T14:56:26.533Z,71.36
2018-11-02T14:58:55.930Z,71.62
2018-11-02T15:01:25.192Z,71.68
2018-11-02T15:03:54.233Z,71.58
2018-11-02T15:06:23.852Z,72.34
2018-11-02T15:08:53.069Z,72.32
2018-11-02T15:11:21.964Z,72.98
2018-11-02T15:13:52.266Z,73.09
2018-11-02T15:16:21.339Z,71.95
2018-11-02T15:18:50.772Z,70.48
2018-11-02T15:21:20.262Z,69.98
2018-11-02T15:23:49.166Z,69.92
2018-11-02T15:26:18.559Z,69.92
2018-11-02T15:28:48.162Z,69.87
2018-11-02T15:31:17.720Z,70.93
2018-11-02T15:33:47.353Z,70.77
2018-11-02T15:36:16.128Z,71.38
2018-11-02T15:38:45.161Z,70.97
2018-11-02T15:41:14.436Z,71.33
2018-11-02T15:43:43.596Z,71.69
2018-11-02T15:46:13.352Z,72.22
2018-11-02T15:48:42.774Z,73.12
2018-11-02T15:51:11.431Z,72.97
2018-11-02T15:53:40.401Z,73.78
2018-11-02T15:56:09.340Z,74.18
2018-11-02T15:58:38.888Z,74.47
2018-11-02T16:01:08.180Z,74.85
2018-11-02T16:03:37.417Z,75.38
2018-11-02T16:06:06.654Z,75.74
2018-11-02T16:08:36.361Z,76.04
2018-11-02T16:11:06.085Z,76.63
2018-11-02T16:13:34.983Z,77.08
2018-11-02T16:16:03.821Z,77.65
2018-11-02T16:18:32.645Z,79.01
2018-11-02T16:21:02.045Z,79.63
2018-11-02T16:23:30.817Z,79.47
2018-11-02T16:26:00.393Z,79.94
2018-11-02T16:28:29.705Z,80.46
2018-11-02T16:30:58.494Z,80.51
2018-11-02T16:33:27.511Z,80.43
2018-11-02T16:35:57.352Z,80.45
2018-11-02T16:38:26.472Z,80.61
2018-11-02T16:40:56.167Z,80.47
2018-11-02T16:43:25.402Z,80.79
2018-11-02T16:45:54.762Z,81.04
2018-11-02T16:48:23.887Z,80.62
2018-11-02T16:50:53.322Z,80.60
2018-11-02T16:53:22.234Z,80.96
2018-11-02T16:55:51.740Z,81.28
2018-11-02T16:58:21.502Z,81.45
2018-11-02T17:00:50.828Z,81.48
2018-11-02T17:03:20.549Z,82.07
2018-11-02T17:05:49.830Z,81.77
2018-11-02T17:08:19.159Z,82.13
2018-11-02T17:10:48.449Z,82.35
2018-11-02T17:13:17.656Z,82.17
2018-11-02T17:15:47.158Z,82.06
2018-11-02T17:18:16.242Z,81.85
2018-11-02T17:20:45.815Z,81.94
2018-11-02T17:23:15.053Z,81.72
2018-11-02T17:25:44.214Z,81.99
2018-11-02T17:28:14.253Z,81.33
2018-11-02T17:30:43.181Z,81.09
2018-11-02T17:33:11.799Z,81.85
2018-11-02T17:35:41.035Z,82.18
2018-11-02T17:38:10.477Z,81.12
2018-11-02T17:40:39.368Z,80.93
2018-11-02T17:43:08.582Z,80.61
2018-11-02T17:45:37.898Z,79.98
2018-11-02T17:48:06.810Z,78.66
2018-11-02T17:50:35.972Z,76.69
2018-11-02T17:53:04.801Z,76.47
2018-11-02T17:55:34.903Z,76.72
2018-11-02T17:58:04.146Z,76.35
2018-11-02T18:00:33.279Z,76.04
2018-11-02T18:03:02.314Z,75.42
2018-11-02T18:05:31.652Z,75.59
2018-11-02T18:08:00.971Z,75.74
2018-11-02T18:10:29.784Z,76.07
2018-11-02T18:12:59.214Z,75.25
2018-11-02T18:15:28.920Z,75.06
2018-11-02T18:17:58.223Z,74.61
2018-11-02T18:20:27.660Z,74.58
2018-11-02T18:22:56.960Z,74.84
2018-11-02T18:25:26.427Z,74.67
2018-11-02T18:27:55.032Z,74.11
2018-11-02T18:30:25.145Z,73.69
2018-11-02T18:32:54.027Z,73.19
2018-11-02T18:35:23.342Z,72.90
2018-11-02T18:37:52.646Z,73.52
2018-11-02T18:40:22.556Z,73.03
2018-11-02T18:42:51.336Z,73.22
2018-11-02T18:45:20.643Z,73.26
2018-11-02T18:47:50.910Z,73.42
2018-11-02T18:50:21.530Z,73.44
2018-11-02T18:52:51.336Z,73.83
2018-11-02T18:55:20.420Z,74.05
2018-11-02T18:57:49.412Z,74.18
2018-11-02T19:00:18.378Z,73.89
2018-11-02T19:02:47.638Z,73.92
2018-11-02T19:05:18.036Z,73.78
2018-11-02T19:07:47.700Z,73.25
2018-11-02T19:10:17.062Z,73.04
2018-11-02T19:12:46.005Z,72.56
2018-11-02T19:15:17.940Z,72.38
2018-11-02T19:17:47.135Z,72.01
2018-11-02T19:20:16.128Z,71.95
2018-11-02T19:22:45.361Z,72.73
2018-11-02T19:25:15.368Z,72.46
2018-11-02T19:27:44.995Z,73.03
2018-11-02T19:30:14.692Z,72.78
2018-11-02T19:32:43.737Z,72.23
2018-11-02T19:35:13.726Z,71.74
2018-11-02T19:37:43.042Z,71.42
2018-11-02T19:40:12.983Z,71.57
2018-11-02T19:42:41.855Z,71.20
2018-11-02T19:45:11.809Z,71.34
2018-11-02T19:47:45.605Z,71.50
2018-11-02T19:50:16.220Z,71.17
2018-11-02T19:52:46.080Z,70.63
2018-11-02T19:55:15.895Z,70.99
2018-11-02T19:57:45.351Z,70.76
2018-11-02T20:00:16.532Z,70.87
2018-11-02T20:02:45.145Z,71.24
2018-11-02T20:05:15.484Z,71.52
2018-11-02T20:07:44.634Z,71.51
2018-11-02T20:10:14.155Z,71.08
2018-11-02T20:12:43.600Z,70.88
2018-11-02T20:15:13.927Z,71.26
2018-11-02T20:17:43.239Z,70.80
2018-11-02T20:20:13.137Z,70.91
2018-11-02T20:22:42.022Z,71.17
2018-11-02T20:25:12.869Z,71.85
2018-11-02T20:27:41.817Z,71.77
2018-11-02T20:30:13.275Z,71.26
2018-11-02T20:32:42.938Z,71.54
2018-11-02T20:35:11.908Z,72.11
2018-11-02T20:37:40.860Z,72.03
2018-11-02T20:40:11.947Z,72.65
2018-11-02T20:42:41.139Z,73.15
2018-11-02T20:45:10.338Z,72.84
2018-11-02T20:47:44.590Z,72.67
2018-11-02T20:50:13.872Z,72.89
2018-11-02T20:52:42.686Z,72.96
2018-11-02T20:55:13.044Z,72.83
2018-11-02T20:57:42.431Z,73.48
2018-11-02T21:00:24.241Z,73.84
2018-11-02T21:03:03.695Z,74.14
2018-11-02T21:05:36.354Z,73.84
2018-11-02T21:08:08.688Z,74.14
2018-11-02T21:10:46.400Z,74.22
2018-11-02T21:13:17.706Z,73.26
2018-11-02T21:15:52.116Z,72.56
2018-11-02T21:18:21.421Z,72.49
2018-11-02T21:20:57.220Z,72.79
2018-11-02T21:23:31.758Z,72.80
2018-11-02T21:26:03.030Z,72.68
2018-11-02T21:28:33.197Z,72.61
2018-11-02T21:31:02.715Z,72.55
2018-11-02T21:33:31.503Z,72.59
2018-11-02T21:36:00.642Z,72.42
2018-11-02T21:38:29.628Z,72.45
2018-11-02T21:40:58.868Z,72.77
2018-11-02T21:43:28.003Z,72.64
2018-11-02T21:45:57.354Z,73.10
2018-11-02T21:48:26.849Z,72.72
2018-11-02T21:50:56.200Z,72.61
2018-11-02T21:53:25.490Z,72.96
2018-11-02T21:55:55.054Z,72.67
2018-11-02T21:58:24.209Z,72.90
2018-11-02T22:00:53.228Z,72.50
2018-11-02T22:03:22.270Z,72.05
2018-11-02T22:05:51.642Z,71.86
2018-11-02T22:08:21.381Z,71.67
2018-11-02T22:10:50.852Z,71.71
2018-11-02T22:13:20.365Z,71.47
2018-11-02T22:15:49.794Z,71.70
2018-11-02T22:18:18.694Z,71.78
2018-11-02T22:20:47.492Z,71.80
2018-11-02T22:23:16.761Z,71.64
2018-11-02T22:25:46.286Z,71.24
2018-11-02T22:28:15.469Z,71.58
2018-11-02T22:30:44.347Z,71.61
2018-11-02T22:33:13.552Z,71.72
2018-11-02T22:35:42.804Z,71.96
2018-11-02T22:38:11.681Z,71.99
2018-11-02T22:40:40.591Z,71.53
2018-11-02T22:43:09.550Z,71.84
2018-11-02T22:45:38.132Z,71.76
2018-11-02T22:48:12.472Z,71.46
2018-11-02T22:50:41.689Z,71.16
2018-11-02T22:53:10.876Z,71.26
2018-11-02T22:55:40.364Z,71.54
2018-11-02T22:58:10.262Z,71.73
2018-11-02T23:00:44.257Z,71.62
2018-11-02T23:03:13.308Z,71.79
2018-11-02T23:05:42.463Z,72.23
2018-11-02T23:08:11.852Z,72.59
2018-11-02T23:10:41.562Z,72.99
2018-11-02T23:13:11.300Z,73.50
2018-11-02T23:15:40.923Z,73.88
2018-11-02T23:18:09.855Z,73.75
2018-11-02T23:20:39.165Z,73.83
2018-11-02T23:23:08.700Z,74.41
2018-11-02T23:25:37.970Z,74.38
2018-11-02T23:28:07.104Z,74.63
2018-11-02T23:30:36.643Z,74.65
2018-11-02T23:33:05.294Z,75.59
2018-11-02T23:35:34.202Z,75.92
2018-11-02T23:38:03.550Z,76.22
2018-11-02T23:40:32.129Z,76.56
2018-11-02T23:43:01.282Z,76.02
2018-11-02T23:45:30.703Z,75.73
2018-11-02T23:48:04.864Z,74.91
2018-11-02T23:50:34.712Z,74.83
2018-11-02T23:53:05.055Z,75.75
2018-11-02T23:55:34.073Z,76.43
2018-11-02T23:58:02.946Z,77.15
